createdAt,value
2022-11-07T00:02:21.528Z,98291.00
2022-11-07T00:04:50.960Z,98300.00
2022-11-07T00:07:19.059Z,98287.00
2022-11-07T00:09:47.093Z,98296.00
2022-11-07T00:12:15.271Z,98299.00
2022-11-07T00:14:43.340Z,98307.00
2022-11-07T00:17:11.421Z,98302.00
2022-11-07T00:19:39.773Z,98293.00
2022-11-07T00:22:09.250Z,98311.00
2022-11-07T00:24:37.293Z,98306.00
2022-11-07T00:27:05.482Z,98306.00
2022-11-07T00:29:33.627Z,98317.00
2022-11-07T00:32:01.712Z,98320.00
2022-11-07T00:34:29.812Z,98327.00
2022-11-07T00:36:57.929Z,98327.00
2022-11-07T00:39:27.426Z,98314.00
2022-11-07T00:41:55.501Z,98320.00
2022-11-07T00:44:23.896Z,98317.00
2022-11-07T00:46:52.123Z,98325.00
2022-11-07T00:49:23.209Z,98333.00
2022-11-07T00:51:51.310Z,98333.00
2022-11-07T00:54:19.399Z,98330.00
2022-11-07T00:56:48.903Z,98339.00
2022-11-07T00:59:17.041Z,98340.00
2022-11-07T01:01:45.284Z,98347.00
2022-11-07T01:04:31.763Z,98335.00
2022-11-07T01:06:59.897Z,98345.00
2022-11-07T01:09:27.966Z,98355.00
2022-11-07T01:11:57.460Z,98344.00
2022-11-07T01:14:25.610Z,98347.00
2022-11-07T01:16:53.797Z,98346.00
2022-11-07T01:19:21.885Z,98355.00
2022-11-07T01:21:50.024Z,98345.00
2022-11-07T01:24:18.255Z,98351.00
2022-11-07T01:26:48.122Z,98355.00
2022-11-07T01:29:17.967Z,98356.00
2022-11-07T01:31:46.063Z,98356.00
2022-11-07T01:34:14.330Z,98357.00
2022-11-07T01:36:42.407Z,98360.00
2022-11-07T01:39:10.518Z,98362.00
2022-11-07T01:41:38.851Z,98354.00
2022-11-07T01:44:40.312Z,98350.00
2022-11-07T01:47:11.764Z,98353.00
2022-11-07T01:49:40.466Z,98366.00
2022-11-07T06:11:29.623Z,98422.00
2022-11-07T06:13:57.734Z,98414.00
2022-11-07T06:16:25.798Z,98420.00
2022-11-07T06:18:54.024Z,98417.00
2022-11-07T06:21:22.060Z,98426.00
2022-11-07T06:23:50.083Z,98425.00
2022-11-07T06:26:18.142Z,98432.00
2022-11-07T06:28:47.581Z,98431.00
2022-11-07T06:31:15.723Z,98439.00
2022-11-07T06:33:43.765Z,98449.00
2022-11-07T06:36:13.094Z,98449.00
2022-11-07T06:38:41.252Z,98447.00
2022-11-07T06:41:10.069Z,98452.00
2022-11-07T06:43:38.237Z,98456.00
2022-11-07T06:46:09.762Z,98455.00
2022-11-07T06:48:37.970Z,98458.00
2022-11-07T06:51:07.404Z,98456.00
2022-11-07T06:53:36.046Z,98459.00
2022-11-07T06:56:05.196Z,98463.00
2022-11-07T06:58:33.340Z,98463.00
2022-11-07T07:01:05.141Z,98459.00
2022-11-07T07:03:34.750Z,98463.00
2022-11-07T07:06:03.292Z,98471.00
2022-11-07T07:08:31.567Z,98472.00
2022-11-07T07:11:03.511Z,98464.00
2022-11-07T07:13:31.617Z,98464.00
2022-11-07T07:15:59.879Z,98469.00
2022-11-07T07:18:28.185Z,98471.00
2022-11-07T07:21:03.773Z,98475.00
2022-11-07T07:23:33.181Z,98483.00
2022-11-07T07:26:01.507Z,98442.00
2022-11-07T07:28:29.536Z,98465.00
2022-11-07T07:31:10.816Z,98465.00
2022-11-07T07:33:38.927Z,98470.00
2022-11-07T07:36:09.792Z,98470.00
2022-11-07T07:38:39.059Z,98491.00
2022-11-07T07:41:07.309Z,98486.00
2022-11-07T07:43:35.445Z,98476.00
2022-11-07T07:46:05.140Z,98477.00
2022-11-07T07:48:33.423Z,98477.00
2022-11-07T14:34:46.096Z,98465.00
2022-11-07T14:37:15.305Z,98467.00
2022-11-07T14:39:43.548Z,98475.00
2022-11-07T14:42:13.965Z,98477.00
2022-11-07T14:44:58.765Z,98476.00
2022-11-07T14:47:28.284Z,98473.00
2022-11-07T14:49:57.709Z,98474.00
2022-11-07T14:52:26.946Z,98464.00
2022-11-07T14:54:58.937Z,98474.00
2022-11-07T14:57:26.996Z,98469.00
2022-11-07T14:59:55.351Z,98463.00
2022-11-07T15:02:26.099Z,98466.00
2022-11-07T15:05:00.136Z,98467.00
2022-11-07T15:07:35.288Z,98469.00
2022-11-07T15:10:13.239Z,98464.00
2022-11-07T15:12:50.098Z,98476.00
2022-11-07T15:15:20.585Z,98467.00
2022-11-07T15:17:49.363Z,98479.00
2022-11-07T15:20:22.406Z,98476.00
2022-11-07T15:22:51.789Z,98474.00
2022-11-07T15:25:26.443Z,98469.00
2022-11-07T15:27:54.514Z,98473.00
2022-11-07T15:30:28.229Z,98472.00
2022-11-07T15:32:56.294Z,98476.00
2022-11-07T15:38:19.192Z,98485.00
2022-11-07T15:40:47.744Z,98477.00
2022-11-07T15:43:15.796Z,98485.00
2022-11-07T15:45:43.972Z,98482.00
2022-11-07T15:48:15.649Z,98485.00
2022-11-07T15:50:44.544Z,98495.00
2022-11-07T15:53:19.345Z,98500.00
2022-11-07T15:55:47.423Z,98499.00
2022-11-07T15:58:16.219Z,98506.00
2022-11-07T16:00:44.476Z,98508.00
2022-11-07T16:03:15.271Z,98499.00
2022-11-07T16:05:45.223Z,98497.00
2022-11-07T16:08:15.127Z,98500.00
2022-11-07T16:10:47.017Z,98510.00
2022-11-07T16:13:15.106Z,98499.00
2022-11-07T16:15:44.849Z,98501.00
2022-11-07T16:18:18.529Z,98491.00
2022-11-07T16:20:47.164Z,98495.00
2022-11-07T16:23:15.256Z,98496.00
2022-11-07T16:25:45.493Z,98495.00
2022-11-07T16:28:23.671Z,98500.00
2022-11-07T16:30:51.982Z,98501.00
2022-11-07T16:33:20.157Z,98498.00
2022-11-07T16:35:49.046Z,98492.00
2022-11-07T16:38:35.272Z,98490.00
2022-11-07T16:41:17.536Z,98371.00
2022-11-07T16:43:47.067Z,98497.00
2022-11-07T16:46:15.862Z,98498.00
2022-11-07T16:48:44.035Z,98495.00
2022-11-07T16:51:14.501Z,98453.00
2022-11-07T16:53:42.724Z,98484.00
2022-11-07T16:56:16.811Z,98487.00
2022-11-07T16:58:46.237Z,98456.00
2022-11-07T17:01:14.365Z,98480.00
2022-11-07T17:03:47.719Z,98485.00
2022-11-07T17:06:19.588Z,98515.00
2022-11-07T17:08:57.304Z,98484.00
2022-11-07T17:11:32.747Z,98492.00
2022-11-07T17:14:02.206Z,98459.00
2022-11-07T17:16:34.814Z,98469.00
2022-11-07T17:19:02.854Z,98485.00
2022-11-07T17:21:31.755Z,98451.00
2022-11-07T17:24:00.861Z,98485.00
2022-11-07T17:26:29.825Z,98492.00
2022-11-07T17:28:57.991Z,98502.00
2022-11-07T17:31:27.384Z,98473.00
2022-11-07T17:33:55.585Z,98485.00
2022-11-07T17:36:35.276Z,98495.00
2022-11-07T17:39:05.875Z,98473.00
2022-11-07T17:41:33.984Z,98497.00
2022-11-07T17:44:02.113Z,98492.00
2022-11-07T17:46:32.701Z,98469.00
2022-11-07T17:49:01.639Z,98503.00
2022-11-07T17:51:29.806Z,98498.00
2022-11-07T17:53:58.593Z,98487.00
2022-11-07T17:56:27.324Z,98499.00
2022-11-07T17:58:57.152Z,98509.00
2022-11-07T18:01:27.980Z,98480.00
2022-11-07T18:03:58.054Z,98497.00
2022-11-07T18:06:26.452Z,98509.00
2022-11-07T18:08:55.934Z,98451.00
2022-11-07T18:11:25.781Z,98517.00
2022-11-07T18:13:54.430Z,98484.00
2022-11-07T18:16:27.218Z,98485.00
2022-11-07T18:18:55.183Z,98431.00
2022-11-07T18:21:24.660Z,98489.00
2022-11-07T18:23:52.836Z,98445.00
2022-11-07T18:26:25.090Z,98443.00
2022-11-07T18:28:53.654Z,98485.00
2022-11-07T18:31:22.832Z,98495.00
2022-11-07T18:33:52.608Z,98486.00
2022-11-07T18:36:21.133Z,98504.00
2022-11-07T18:38:50.903Z,98458.00
2022-11-07T18:41:20.207Z,98494.00
2022-11-07T18:43:48.400Z,98497.00
2022-11-07T18:46:20.786Z,98485.00
2022-11-07T18:48:48.889Z,98487.00
2022-11-07T18:51:17.599Z,98485.00
2022-11-07T18:53:45.668Z,98455.00
2022-11-07T18:56:15.555Z,98479.00
2022-11-07T18:58:43.654Z,98466.00
2022-11-07T19:01:12.800Z,98531.00
2022-11-07T19:03:41.017Z,98481.00
2022-11-07T19:06:10.140Z,98527.00
2022-11-07T19:08:39.298Z,98451.00
2022-11-07T19:11:08.353Z,98474.00
2022-11-07T19:13:38.431Z,98498.00
2022-11-07T19:16:07.168Z,98504.00
2022-11-07T19:18:35.311Z,98457.00
2022-11-07T19:21:03.746Z,98505.00
2022-11-07T19:23:31.827Z,98495.00
2022-11-07T19:25:59.913Z,98500.00
2022-11-07T19:28:27.928Z,98504.00
2022-11-07T19:30:58.232Z,98494.00
2022-11-07T19:33:26.231Z,98454.00
2022-11-07T19:35:59.361Z,98471.00
2022-11-07T19:38:27.554Z,98488.00
2022-11-07T19:40:55.928Z,98509.00
2022-11-07T19:43:24.007Z,98502.00
2022-11-07T19:45:52.118Z,98497.00
2022-11-07T19:48:22.013Z,98507.00
2022-11-07T19:50:50.182Z,98406.00
2022-11-07T19:53:18.871Z,98522.00
2022-11-07T19:55:47.096Z,98502.00
2022-11-07T19:58:15.777Z,98492.00
2022-11-07T20:00:43.932Z,98487.00
2022-11-07T20:03:11.993Z,98476.00
2022-11-07T20:05:41.830Z,98481.00
2022-11-07T20:08:09.860Z,98491.00
2022-11-07T20:10:37.895Z,98496.00
2022-11-07T20:13:06.019Z,98493.00
2022-11-07T20:15:34.187Z,98495.00
2022-11-07T20:18:02.381Z,98493.00
2022-11-07T20:20:30.456Z,98496.00
2022-11-07T20:23:00.596Z,98506.00
2022-11-07T20:25:28.708Z,98494.00
2022-11-07T20:27:56.801Z,98446.00
2022-11-07T20:30:24.833Z,98523.00
2022-11-07T20:32:53.028Z,98442.00
2022-11-07T20:35:21.157Z,98517.00
2022-11-07T20:37:49.240Z,98518.00
2022-11-07T20:40:18.914Z,98531.00
2022-11-07T20:42:47.069Z,98480.00
2022-11-07T20:45:15.197Z,98531.00
2022-11-07T20:47:43.285Z,98464.00
2022-11-07T20:50:11.568Z,98497.00
2022-11-07T20:52:39.808Z,98504.00
2022-11-07T20:55:08.525Z,98524.00
2022-11-07T20:57:38.060Z,98509.00
2022-11-07T21:00:07.031Z,98480.00
2022-11-07T21:02:35.170Z,98477.00
2022-11-07T21:05:17.328Z,98500.00
2022-11-07T21:07:48.200Z,98481.00
2022-11-07T21:10:16.519Z,98467.00
2022-11-07T21:12:45.947Z,98453.00
2022-11-07T21:15:14.060Z,98518.00
2022-11-07T21:17:42.156Z,98475.00
2022-11-07T21:20:11.041Z,98543.00
2022-11-07T21:22:39.321Z,98509.00
2022-11-07T21:25:08.349Z,98510.00
2022-11-07T21:27:37.226Z,98509.00
2022-11-07T21:30:09.383Z,98514.00
2022-11-07T21:32:37.516Z,98477.00
2022-11-07T21:35:06.188Z,98477.00
2022-11-07T21:37:34.259Z,98512.00
2022-11-07T21:40:02.532Z,98510.00
2022-11-07T21:42:30.540Z,98488.00
2022-11-07T21:44:58.631Z,98470.00
2022-11-07T21:47:28.174Z,98567.00
2022-11-07T21:49:56.297Z,98528.00
2022-11-07T21:52:27.405Z,98495.00
2022-11-07T21:54:55.608Z,98530.00
2022-11-07T21:57:23.658Z,98475.00
2022-11-07T21:59:51.722Z,98530.00
2022-11-07T22:02:19.920Z,98514.00
2022-11-07T22:04:49.813Z,98557.00
2022-11-07T22:07:17.943Z,98524.00
2022-11-07T22:09:45.950Z,98449.00
2022-11-07T22:12:14.117Z,98524.00
2022-11-07T22:14:43.009Z,98505.00
2022-11-07T22:17:11.134Z,98470.00
2022-11-07T22:19:39.204Z,98499.00
2022-11-07T22:22:08.688Z,98473.00
2022-11-07T22:24:36.767Z,98481.00
2022-11-07T22:27:05.048Z,98516.00
2022-11-07T22:29:33.103Z,98497.00
2022-11-07T22:32:01.535Z,98456.00
2022-11-07T22:34:29.907Z,98516.00
2022-11-07T22:36:58.043Z,98539.00
2022-11-07T22:39:27.501Z,98498.00
2022-11-07T22:41:55.499Z,98511.00
2022-11-07T22:44:23.623Z,98537.00
2022-11-07T22:46:51.768Z,98548.00
2022-11-07T22:49:20.234Z,98501.00
2022-11-07T22:51:48.290Z,98501.00
2022-11-07T22:54:16.375Z,98508.00
2022-11-07T22:56:45.880Z,98520.00
2022-11-07T22:59:14.024Z,98511.00
2022-11-07T23:01:42.802Z,98526.00
2022-11-07T23:04:14.270Z,98397.00
2022-11-07T23:06:42.582Z,98483.00
2022-11-07T23:09:12.577Z,98458.00
2022-11-07T23:11:45.762Z,98453.00
2022-11-07T23:14:19.834Z,98474.00
2022-11-07T23:16:48.950Z,98414.00
2022-11-07T23:19:17.893Z,98479.00
2022-11-07T23:21:45.998Z,98463.00
2022-11-07T23:24:14.155Z,98452.00
2022-11-07T23:26:42.414Z,98440.00
2022-11-07T23:29:12.994Z,98540.00
2022-11-07T23:31:43.040Z,98455.00
2022-11-07T23:34:11.200Z,98411.00
2022-11-07T23:36:40.890Z,98480.00
2022-11-07T23:39:09.583Z,98476.00
2022-11-07T23:41:37.713Z,98443.00
2022-11-07T23:44:06.102Z,98523.00
2022-11-07T23:46:52.009Z,98444.00
2022-11-07T23:49:50.113Z,98490.00
2022-11-07T23:52:18.367Z,98461.00
2022-11-07T23:55:04.085Z,98490.00
2022-11-07T23:57:34.358Z,98479.00
